createdAt,value
2018-07-25T00:01:59.785Z,11.07
2018-07-25T00:04:27.437Z,12.40
2018-07-25T00:06:55.022Z,13.57
2018-07-25T00:09:22.657Z,12.07
2018-07-25T00:11:50.514Z,9.53
2018-07-25T00:14:18.146Z,13.17
2018-07-25T00:16:45.832Z,10.50
2018-07-25T00:19:13.417Z,10.47
2018-07-25T00:21:41.033Z,9.40
2018-07-25T00:24:08.875Z,9.57
2018-07-25T00:26:36.444Z,8.93
2018-07-25T00:29:07.061Z,10.30
2018-07-25T00:31:34.783Z,11.87
2018-07-25T00:34:02.698Z,11.97
2018-07-25T00:36:31.373Z,12.07
2018-07-25T00:38:58.972Z,13.47
2018-07-25T00:41:26.495Z,12.90
2018-07-25T00:43:54.080Z,10.83
2018-07-25T00:46:21.619Z,11.87
2018-07-25T00:48:49.500Z,11.93
2018-07-25T00:51:17.225Z,16.33
2018-07-25T00:53:44.781Z,12.90
2018-07-25T00:56:12.655Z,14.83
2018-07-25T00:58:40.305Z,17.13
2018-07-25T01:01:07.888Z,15.23
2018-07-25T01:03:35.454Z,13.10
2018-07-25T01:06:03.349Z,14.13
2018-07-25T01:08:30.973Z,12.60
2018-07-25T01:10:58.828Z,18.77
2018-07-25T01:13:26.419Z,16.40
2018-07-25T01:15:53.993Z,13.60
2018-07-25T01:18:21.860Z,14.63
2018-07-25T01:20:49.449Z,16.27
2018-07-25T01:23:17.009Z,16.07
2018-07-25T01:25:44.544Z,14.87
2018-07-25T01:28:12.213Z,15.47
2018-07-25T01:30:40.634Z,18.43
2018-07-25T01:33:08.307Z,13.97
2018-07-25T01:35:35.891Z,12.77
2018-07-25T01:38:03.511Z,16.93
2018-07-25T01:40:31.558Z,15.47
2018-07-25T01:42:59.116Z,12.93
2018-07-25T01:45:26.681Z,15.37
2018-07-25T01:47:54.257Z,14.33
2018-07-25T01:50:21.833Z,13.60
2018-07-25T01:52:49.721Z,13.83
2018-07-25T01:55:17.305Z,15.37
2018-07-25T01:57:44.897Z,13.73
2018-07-25T02:00:12.462Z,17.40
2018-07-25T02:02:40.240Z,13.87
2018-07-25T02:05:07.902Z,16.77
2018-07-25T02:07:35.505Z,15.33
2018-07-25T02:10:03.814Z,13.90
2018-07-25T02:12:31.493Z,13.60
2018-07-25T02:14:59.124Z,17.83
2018-07-25T02:17:26.673Z,17.07
2018-07-25T02:19:54.233Z,17.60
2018-07-25T02:22:21.993Z,19.13
2018-07-25T02:24:49.557Z,16.90
2018-07-25T02:27:17.106Z,15.53
2018-07-25T02:29:44.752Z,14.47
2018-07-25T02:32:13.377Z,14.27
2018-07-25T02:34:40.974Z,14.43
2018-07-25T02:37:09.666Z,13.80
2018-07-25T02:39:37.362Z,15.80
2018-07-25T02:42:04.935Z,13.13
2018-07-25T02:44:32.537Z,14.40
2018-07-25T02:47:00.293Z,15.57
2018-07-25T02:49:27.913Z,16.70
2018-07-25T02:51:55.497Z,14.90
2018-07-25T02:54:23.113Z,13.93
2018-07-25T02:56:50.848Z,16.30
2018-07-25T02:59:18.725Z,15.43
2018-07-25T03:01:46.253Z,15.83
2018-07-25T03:04:13.881Z,15.43
2018-07-25T03:06:41.545Z,15.20
2018-07-25T03:09:09.805Z,16.30
2018-07-25T03:11:37.732Z,18.50
2018-07-25T03:14:05.327Z,21.67
2018-07-25T03:16:33.210Z,16.60
2018-07-25T03:19:00.789Z,15.50
2018-07-25T03:21:28.401Z,15.40
2018-07-25T03:23:55.966Z,15.17
2018-07-25T03:26:23.514Z,16.93
2018-07-25T03:28:51.161Z,16.07
2018-07-25T03:31:19.251Z,14.83
2018-07-25T03:33:47.093Z,19.60
2018-07-25T03:36:14.661Z,15.40
2018-07-25T03:38:42.609Z,15.33
2018-07-25T03:41:10.306Z,15.17
2018-07-25T03:43:37.945Z,17.33
2018-07-25T03:46:05.509Z,17.17
2018-07-25T03:48:37.569Z,19.50
2018-07-25T03:51:09.316Z,17.77
2018-07-25T03:53:37.061Z,21.50
2018-07-25T03:56:04.758Z,18.47
2018-07-25T03:58:32.344Z,16.90
2018-07-25T04:00:59.933Z,17.00
2018-07-25T04:03:27.777Z,17.00
2018-07-25T04:05:55.509Z,17.03
2018-07-25T04:08:23.110Z,17.60
2018-07-25T04:10:51.197Z,16.40
2018-07-25T04:13:18.957Z,16.17
2018-07-25T04:15:46.769Z,16.97
2018-07-25T04:18:14.352Z,17.20
2018-07-25T04:20:41.941Z,17.17
2018-07-25T04:23:10.528Z,20.43
2018-07-25T04:25:38.125Z,16.30
2018-07-25T04:28:05.711Z,16.47
2018-07-25T04:30:33.289Z,18.80
2018-07-25T04:33:00.878Z,17.90
2018-07-25T04:35:28.453Z,16.30
2018-07-25T04:37:56.228Z,15.67
2018-07-25T04:40:23.828Z,16.30
2018-07-25T04:42:51.453Z,16.03
2018-07-25T04:45:19.022Z,15.60
2018-07-25T04:47:48.776Z,15.37
2018-07-25T04:50:16.678Z,14.90
2018-07-25T04:52:44.632Z,16.27
2018-07-25T04:55:12.193Z,15.70
2018-07-25T04:57:43.786Z,15.30
2018-07-25T05:00:11.375Z,14.27
2018-07-25T05:02:39.003Z,19.00
2018-07-25T05:05:06.661Z,19.47
2018-07-25T05:07:34.197Z,18.63
2018-07-25T05:10:02.086Z,17.23
2018-07-25T05:12:29.738Z,20.37
2018-07-25T05:14:57.352Z,16.97
2018-07-25T05:17:25.054Z,18.93
2018-07-25T05:19:52.685Z,18.50
2018-07-25T05:22:20.377Z,16.70
2018-07-25T05:24:47.948Z,16.03
2018-07-25T05:27:15.602Z,18.33
2018-07-25T05:29:44.761Z,19.97
2018-07-25T05:32:14.278Z,16.43
2018-07-25T05:34:42.495Z,18.03
2018-07-25T05:37:10.098Z,17.47
2018-07-25T05:39:37.753Z,17.10
2018-07-25T05:42:05.425Z,17.20
2018-07-25T05:44:33.049Z,15.87
2018-07-25T05:47:00.605Z,76.03
2018-07-25T05:49:28.148Z,16.27
2018-07-25T05:51:55.720Z,21.07
2018-07-25T05:54:23.330Z,50.53
2018-07-25T05:56:50.932Z,16.77
2018-07-25T05:59:18.620Z,19.33
2018-07-25T06:01:46.333Z,16.13
2018-07-25T06:04:14.041Z,16.30
2018-07-25T06:06:41.611Z,16.90
2018-07-25T06:09:09.834Z,18.10
2018-07-25T06:11:37.565Z,20.17
2018-07-25T06:14:05.241Z,15.87
2018-07-25T06:16:32.878Z,19.37
2018-07-25T06:19:00.580Z,16.73
2018-07-25T06:21:28.237Z,15.90
2018-07-25T06:23:55.892Z,21.73
2018-07-25T06:26:23.444Z,17.43
2018-07-25T06:28:51.060Z,20.13
2018-07-25T06:31:18.714Z,17.40
2018-07-25T06:33:46.360Z,22.70
2018-07-25T06:36:13.920Z,26.33
2018-07-25T06:38:44.434Z,20.03
2018-07-25T06:41:12.081Z,26.77
2018-07-25T06:43:39.705Z,19.33
2018-07-25T06:46:07.521Z,19.73
2018-07-25T06:48:35.102Z,28.13
2018-07-25T06:51:02.665Z,23.87
2018-07-25T06:53:30.258Z,21.67
2018-07-25T06:55:57.865Z,39.30
2018-07-25T06:58:25.420Z,20.93
2018-07-25T07:00:53.010Z,37.33
2018-07-25T07:03:20.589Z,28.37
2018-07-25T07:05:48.164Z,22.53
2018-07-25T07:08:15.722Z,21.00
2018-07-25T07:10:43.314Z,19.20
2018-07-25T07:13:10.901Z,26.27
2018-07-25T07:15:38.468Z,19.63
2018-07-25T07:18:06.094Z,28.23
2018-07-25T07:20:33.684Z,24.80
2018-07-25T07:23:01.278Z,20.47
2018-07-25T07:25:28.816Z,23.20
2018-07-25T07:27:56.365Z,22.33
2018-07-25T07:30:23.922Z,23.60
2018-07-25T07:32:51.521Z,26.60
2018-07-25T07:35:19.097Z,23.17
2018-07-25T07:37:46.711Z,25.77
2018-07-25T07:40:14.252Z,52.70
2018-07-25T07:42:42.461Z,24.73
2018-07-25T07:45:10.029Z,23.93
2018-07-25T07:47:38.101Z,22.03
2018-07-25T07:50:05.838Z,21.27
2018-07-25T07:52:33.721Z,19.23
2018-07-25T07:55:01.287Z,20.00
2018-07-25T07:57:28.877Z,26.83
2018-07-25T07:59:56.441Z,18.07
2018-07-25T08:02:24.004Z,19.53
2018-07-25T08:04:51.636Z,19.53
2018-07-25T08:07:19.192Z,20.57
2018-07-25T08:09:46.732Z,15.37
2018-07-25T08:12:14.312Z,19.50
2018-07-25T08:14:42.404Z,15.37
2018-07-25T08:17:09.987Z,17.30
2018-07-25T08:19:37.566Z,20.33
2018-07-25T08:22:05.210Z,20.33
2018-07-25T08:24:32.700Z,14.57
2018-07-25T08:27:00.299Z,17.10
2018-07-25T08:29:28.201Z,17.13
2018-07-25T08:31:55.809Z,16.20
2018-07-25T08:34:23.454Z,15.50
2018-07-25T08:36:51.089Z,20.17
2018-07-25T08:39:19.317Z,17.60
2018-07-25T08:41:47.046Z,16.10
2018-07-25T08:44:14.495Z,17.73
2018-07-25T08:46:42.073Z,18.87
2018-07-25T08:49:09.653Z,15.47
2018-07-25T08:51:37.172Z,17.03
2018-07-25T08:54:04.897Z,22.00
2018-07-25T08:56:32.454Z,19.03
2018-07-25T08:59:06.813Z,19.47
2018-07-25T09:01:34.338Z,14.07
2018-07-25T09:04:01.924Z,19.67
2018-07-25T09:06:29.506Z,17.80
2018-07-25T09:08:57.042Z,20.57
2018-07-25T09:11:25.510Z,17.97
2018-07-25T09:13:53.128Z,14.93
2018-07-25T09:16:20.765Z,19.00
2018-07-25T09:18:48.326Z,17.37
2018-07-25T09:21:15.877Z,17.97
2018-07-25T09:23:43.419Z,14.73
2018-07-25T09:26:10.972Z,13.10
2018-07-25T09:28:38.990Z,18.03
2018-07-25T09:31:06.562Z,18.10
2018-07-25T09:33:34.197Z,14.87
2018-07-25T09:36:01.767Z,14.07
2018-07-25T09:38:29.346Z,14.40
2018-07-25T09:40:57.511Z,19.47
2018-07-25T09:43:25.071Z,14.17
2018-07-25T09:45:52.662Z,15.57
2018-07-25T09:48:20.247Z,15.80
2018-07-25T09:50:48.173Z,15.47
2018-07-25T09:53:16.135Z,30.10
2018-07-25T09:55:43.844Z,18.90
2018-07-25T09:58:11.431Z,13.67
2018-07-25T10:00:44.980Z,21.00
2018-07-25T10:03:12.597Z,17.50
2018-07-25T10:05:40.136Z,17.97
2018-07-25T10:08:07.720Z,19.83
2018-07-25T10:10:35.319Z,17.10
2018-07-25T10:13:02.954Z,13.13
2018-07-25T10:15:30.553Z,16.17
2018-07-25T10:17:58.105Z,14.60
2018-07-25T10:20:26.489Z,20.70
2018-07-25T10:22:54.050Z,16.70
2018-07-25T10:25:22.195Z,17.17
2018-07-25T10:27:49.894Z,16.60
2018-07-25T10:30:17.507Z,14.93
2018-07-25T10:32:45.060Z,11.53
2018-07-25T10:35:12.649Z,10.67
2018-07-25T10:37:40.239Z,15.90
2018-07-25T10:40:08.127Z,13.40
2018-07-25T10:42:36.108Z,12.30
2018-07-25T10:45:04.781Z,12.67
2018-07-25T10:47:32.337Z,11.77
2018-07-25T10:49:59.993Z,10.53
2018-07-25T10:52:27.540Z,10.17
2018-07-25T10:54:55.239Z,13.23
2018-07-25T10:57:22.785Z,14.03
2018-07-25T10:59:50.357Z,13.20
2018-07-25T11:02:18.017Z,14.80
2018-07-25T11:04:45.534Z,12.10
2018-07-25T11:07:13.049Z,13.87
2018-07-25T11:09:40.668Z,14.97
2018-07-25T11:12:08.193Z,14.40
2018-07-25T11:14:35.782Z,15.57
2018-07-25T11:17:03.339Z,12.97
2018-07-25T11:19:30.997Z,11.63
2018-07-25T11:21:58.745Z,13.70
2018-07-25T11:24:26.313Z,11.80
2018-07-25T11:26:53.869Z,14.57
2018-07-25T11:29:21.413Z,13.37
2018-07-25T11:31:48.930Z,10.58
2018-07-25T11:34:16.469Z,12.57
2018-07-25T11:36:43.990Z,9.50
2018-07-25T11:39:12.669Z,7.08
2018-07-25T11:41:40.196Z,12.63
2018-07-25T11:44:07.773Z,9.93
2018-07-25T11:46:35.323Z,10.80
2018-07-25T11:49:03.082Z,7.97
2018-07-25T11:51:31.502Z,6.50
2018-07-25T11:53:59.162Z,8.88
2018-07-25T11:56:26.733Z,8.88
2018-07-25T11:58:54.245Z,10.88
2018-07-25T12:01:21.860Z,7.87
2018-07-25T12:03:49.362Z,5.75
2018-07-25T12:06:16.951Z,10.30
2018-07-25T12:08:44.486Z,17.05
2018-07-25T12:11:12.118Z,9.58
2018-07-25T12:13:39.652Z,5.80
2018-07-25T12:16:07.212Z,9.10
2018-07-25T12:18:34.802Z,10.05
2018-07-25T12:21:02.383Z,5.55
2018-07-25T12:23:29.929Z,7.42
2018-07-25T12:25:57.465Z,5.45
2018-07-25T12:28:25.028Z,5.30
2018-07-25T12:30:52.609Z,5.37
2018-07-25T12:33:20.197Z,8.23
2018-07-25T12:35:47.774Z,8.85
2018-07-25T12:38:15.478Z,5.33
2018-07-25T12:40:43.064Z,6.25
2018-07-25T12:43:10.614Z,6.03
2018-07-25T12:45:38.211Z,9.13
2018-07-25T12:48:05.802Z,6.12
2018-07-25T12:50:33.438Z,6.65
2018-07-25T12:53:01.010Z,5.70
2018-07-25T12:55:28.618Z,5.85
2018-07-25T12:57:56.126Z,7.97
2018-07-25T13:00:23.722Z,7.70
2018-07-25T13:02:51.330Z,6.67
2018-07-25T13:05:18.870Z,8.05
2018-07-25T13:07:46.517Z,19.75
2018-07-25T13:10:14.079Z,7.58
2018-07-25T13:12:41.681Z,5.35
2018-07-25T13:15:09.249Z,5.05
2018-07-25T13:17:36.832Z,4.87
2018-07-25T13:20:05.585Z,5.65
2018-07-25T13:22:35.210Z,5.60
2018-07-25T13:25:04.501Z,5.50
2018-07-25T13:27:32.320Z,7.08
2018-07-25T13:29:59.880Z,7.92
2018-07-25T13:32:27.458Z,5.55
2018-07-25T13:34:55.038Z,5.50
2018-07-25T13:37:22.613Z,5.72
2018-07-25T13:39:50.949Z,5.92
2018-07-25T13:42:18.589Z,8.80
2018-07-25T13:44:46.189Z,8.63
2018-07-25T13:47:13.785Z,6.80
2018-07-25T13:49:41.445Z,7.45
2018-07-25T13:52:09.094Z,5.65
2018-07-25T13:54:36.693Z,5.97
2018-07-25T13:57:04.345Z,7.12
2018-07-25T13:59:31.902Z,6.33
2018-07-25T14:01:59.471Z,9.65
2018-07-25T14:04:27.021Z,6.85
2018-07-25T14:06:54.616Z,9.30
2018-07-25T14:09:22.165Z,6.10
2018-07-25T14:11:49.786Z,9.45
2018-07-25T14:14:17.321Z,7.03
2018-07-25T14:16:44.965Z,7.67
2018-07-25T14:19:12.522Z,5.85
2018-07-25T14:21:40.113Z,5.83
2018-07-25T14:24:07.889Z,5.78
2018-07-25T14:26:35.291Z,7.08
2018-07-25T14:29:03.003Z,7.40
2018-07-25T14:31:30.548Z,6.92
2018-07-25T14:33:58.093Z,9.15
2018-07-25T14:36:25.691Z,5.55
2018-07-25T14:38:53.229Z,6.58
2018-07-25T14:41:20.846Z,6.17
2018-07-25T14:43:48.726Z,5.85
2018-07-25T14:46:16.317Z,5.20
2018-07-25T14:48:43.873Z,5.45
2018-07-25T14:51:11.536Z,5.85
2018-07-25T14:53:39.077Z,9.88
2018-07-25T14:56:07.120Z,5.85
2018-07-25T14:58:34.864Z,7.87
2018-07-25T15:01:02.560Z,5.20
2018-07-25T15:03:30.150Z,5.97
2018-07-25T15:05:59.784Z,6.60
2018-07-25T15:08:27.401Z,6.67
2018-07-25T15:10:55.002Z,6.60
2018-07-25T15:13:22.688Z,4.92
2018-07-25T15:15:50.397Z,5.45
2018-07-25T15:18:17.981Z,4.35
2018-07-25T15:20:45.746Z,4.75
2018-07-25T15:23:18.992Z,4.62
2018-07-25T15:25:46.533Z,4.90
2018-07-25T15:28:14.107Z,4.85
2018-07-25T15:30:41.673Z,5.85
2018-07-25T15:33:09.590Z,5.00
2018-07-25T15:35:37.758Z,4.80
2018-07-25T15:38:05.393Z,6.05
2018-07-25T15:40:33.301Z,13.32
2018-07-25T15:43:01.050Z,5.20
2018-07-25T15:45:28.608Z,5.03
2018-07-25T15:47:56.398Z,4.83
2018-07-25T15:50:23.946Z,4.97
2018-07-25T15:52:51.819Z,4.85
2018-07-25T15:55:19.587Z,4.80
2018-07-25T15:57:47.264Z,4.90
2018-07-25T16:00:15.007Z,5.15
2018-07-25T16:02:42.829Z,5.37
2018-07-25T16:05:10.527Z,5.35
2018-07-25T16:07:38.497Z,4.95
2018-07-25T16:10:06.171Z,5.17
2018-07-25T16:12:33.700Z,5.00
2018-07-25T16:15:01.273Z,4.67
2018-07-25T16:17:28.936Z,7.58
2018-07-25T16:19:56.529Z,5.12
2018-07-25T16:22:24.089Z,6.60
2018-07-25T16:24:51.672Z,5.12
2018-07-25T16:27:19.221Z,8.10
2018-07-25T16:29:46.773Z,13.72
2018-07-25T16:32:14.344Z,7.40
2018-07-25T16:34:41.921Z,6.22
2018-07-25T16:37:09.486Z,4.92
2018-07-25T16:39:37.196Z,5.58
2018-07-25T16:42:04.774Z,6.05
2018-07-25T16:44:32.358Z,4.70
2018-07-25T16:46:59.919Z,5.22
2018-07-25T16:49:27.534Z,7.97
2018-07-25T16:51:55.098Z,6.92
2018-07-25T16:54:22.676Z,9.43
2018-07-25T16:56:50.264Z,14.25
2018-07-25T16:59:17.847Z,11.65
2018-07-25T17:01:45.420Z,8.55
2018-07-25T17:04:13.034Z,6.78
2018-07-25T17:06:40.609Z,6.28
2018-07-25T17:09:09.562Z,12.18
2018-07-25T17:11:37.167Z,18.20
2018-07-25T17:14:04.843Z,6.22
2018-07-25T17:16:32.405Z,5.75
2018-07-25T17:18:59.989Z,5.08
2018-07-25T17:21:27.556Z,4.70
2018-07-25T17:23:55.157Z,4.92
2018-07-25T17:26:22.765Z,4.67
2018-07-25T17:28:50.969Z,4.67
2018-07-25T17:31:19.343Z,4.65
2018-07-25T17:33:46.914Z,5.28
2018-07-25T17:36:14.530Z,4.60
2018-07-25T17:38:42.117Z,6.60
2018-07-25T17:41:09.665Z,6.58
2018-07-25T17:43:37.222Z,4.87
2018-07-25T17:46:04.838Z,6.92
2018-07-25T17:48:32.436Z,4.83
2018-07-25T17:51:00.062Z,5.03
2018-07-25T17:53:27.585Z,5.45
2018-07-25T17:55:55.190Z,16.07
2018-07-25T17:58:22.761Z,8.70
2018-07-25T18:00:51.920Z,5.20
2018-07-25T18:03:19.533Z,5.30
2018-07-25T18:05:47.059Z,4.53
2018-07-25T18:08:14.613Z,4.55
2018-07-25T18:10:42.193Z,4.42
2018-07-25T18:13:15.329Z,4.40
2018-07-25T18:15:42.979Z,4.30
2018-07-25T18:18:10.500Z,4.78
2018-07-25T18:20:38.062Z,4.78
2018-07-25T18:23:05.865Z,5.35
2018-07-25T18:25:33.701Z,4.60
2018-07-25T18:28:01.354Z,4.58
2018-07-25T18:30:29.250Z,4.22
2018-07-25T18:32:57.166Z,4.58
2018-07-25T18:35:24.965Z,6.40
2018-07-25T18:40:46.249Z,6.00
2018-07-25T18:43:14.085Z,18.00
2018-07-25T18:45:41.731Z,22.50
2018-07-25T18:48:09.409Z,10.28
2018-07-25T18:50:37.001Z,5.53
2018-07-25T18:53:04.951Z,5.60
2018-07-25T18:55:32.613Z,4.60
2018-07-25T18:58:00.213Z,4.93
2018-07-25T19:00:27.843Z,5.13
2018-07-25T19:02:55.439Z,5.13
2018-07-25T19:05:28.563Z,5.30
2018-07-25T19:07:56.125Z,8.00
2018-07-25T19:10:23.838Z,8.57
2018-07-25T19:12:51.419Z,6.97
2018-07-25T19:15:24.533Z,7.67
2018-07-25T19:17:52.465Z,7.67
2018-07-25T19:20:20.697Z,6.33
2018-07-25T19:22:48.242Z,8.43
2018-07-25T19:25:15.906Z,6.30
2018-07-25T19:27:43.497Z,7.03
2018-07-25T19:30:11.096Z,10.97
2018-07-25T19:32:38.842Z,12.60
2018-07-25T19:35:06.450Z,15.70
2018-07-25T19:37:34.077Z,7.30
2018-07-25T19:40:01.722Z,5.80
2018-07-25T19:42:29.365Z,7.90
2018-07-25T19:44:56.930Z,12.30
2018-07-25T19:47:24.565Z,11.00
2018-07-25T19:49:52.134Z,8.83
2018-07-25T19:52:19.747Z,9.10
2018-07-25T19:54:47.778Z,14.77
2018-07-25T19:57:15.404Z,15.67
2018-07-25T19:59:42.986Z,8.37
2018-07-25T20:02:10.785Z,5.97
2018-07-25T20:04:38.269Z,7.50
2018-07-25T20:07:05.943Z,8.63
2018-07-25T20:09:33.484Z,8.53
2018-07-25T20:12:01.099Z,8.40
2018-07-25T20:16:38.320Z,7.03
2018-07-25T20:19:05.881Z,6.23
2018-07-25T20:21:33.505Z,6.40
2018-07-25T20:24:01.181Z,6.63
2018-07-25T20:26:28.719Z,8.17
2018-07-25T20:28:56.362Z,6.50
2018-07-25T20:31:23.997Z,23.73
2018-07-25T20:33:51.578Z,97.90
2018-07-25T20:36:19.250Z,32.80
2018-07-25T20:38:46.860Z,9.37
2018-07-25T20:41:21.405Z,21.73
2018-07-25T20:43:48.990Z,13.53
2018-07-25T20:46:16.682Z,16.47
2018-07-25T20:48:44.355Z,10.40
2018-07-25T20:51:12.270Z,7.37
2018-07-25T20:53:40.226Z,9.53
2018-07-25T20:56:08.635Z,6.57
2018-07-25T20:58:36.247Z,7.87
2018-07-25T21:01:03.854Z,7.17
2018-07-25T21:03:31.459Z,6.60
2018-07-25T21:05:59.117Z,5.90
2018-07-25T21:08:26.741Z,6.43
2018-07-25T21:10:54.433Z,9.90
2018-07-25T21:13:22.065Z,7.13
2018-07-25T21:15:49.627Z,6.73
2018-07-25T21:18:17.226Z,7.10
2018-07-25T21:20:44.801Z,6.20
2018-07-25T21:23:12.542Z,6.90
2018-07-25T21:25:40.117Z,6.83
2018-07-25T21:28:08.794Z,7.70
2018-07-25T21:30:36.365Z,7.03
2018-07-25T21:33:04.371Z,6.33
2018-07-25T21:35:31.949Z,7.53
2018-07-25T21:37:59.588Z,8.43
2018-07-25T21:40:27.198Z,7.33
2018-07-25T21:42:54.789Z,7.40
2018-07-25T21:45:22.394Z,7.87
2018-07-25T21:47:50.738Z,9.63
2018-07-25T21:50:18.889Z,12.13
2018-07-25T21:52:46.705Z,16.93
2018-07-25T21:55:14.312Z,8.83
2018-07-25T21:57:41.910Z,6.50
2018-07-25T22:00:14.141Z,10.50
2018-07-25T22:02:42.534Z,7.90
2018-07-25T22:05:10.707Z,8.43
2018-07-25T22:07:38.352Z,8.23
2018-07-25T22:10:07.109Z,7.40
2018-07-25T22:12:34.779Z,6.37
2018-07-25T22:15:02.383Z,7.77
2018-07-25T22:17:29.982Z,6.50
2018-07-25T22:19:57.616Z,7.83
2018-07-25T22:22:25.254Z,7.83
2018-07-25T22:24:52.958Z,6.77
2018-07-25T22:27:20.514Z,7.43
2018-07-25T22:29:48.109Z,7.63
2018-07-25T22:32:15.730Z,8.17
2018-07-25T22:34:43.319Z,6.27
2018-07-25T22:37:11.037Z,6.73
2018-07-25T22:39:38.618Z,6.93
2018-07-25T22:42:06.240Z,7.40
2018-07-25T22:44:33.831Z,7.00
2018-07-25T22:47:01.513Z,7.87
2018-07-25T22:49:29.135Z,7.77
2018-07-25T22:51:56.742Z,8.90
2018-07-25T22:54:24.321Z,6.60
2018-07-25T22:56:51.922Z,7.37
2018-07-25T22:59:19.622Z,6.23
2018-07-25T23:01:47.206Z,6.30
2018-07-25T23:04:14.810Z,7.17
2018-07-25T23:06:42.389Z,9.20
2018-07-25T23:09:10.909Z,6.50
2018-07-25T23:11:38.537Z,8.00
2018-07-25T23:14:06.200Z,9.90
2018-07-25T23:16:33.812Z,7.10
2018-07-25T23:19:01.317Z,7.10
2018-07-25T23:21:28.974Z,7.17
2018-07-25T23:23:56.575Z,7.30
2018-07-25T23:26:24.818Z,7.93
2018-07-25T23:28:52.413Z,7.53
2018-07-25T23:31:20.030Z,9.27
2018-07-25T23:33:47.630Z,7.33
2018-07-25T23:36:15.210Z,8.77
2018-07-25T23:38:43.117Z,8.77
2018-07-25T23:41:11.142Z,7.23
2018-07-25T23:43:38.773Z,7.00
2018-07-25T23:46:06.378Z,6.87
2018-07-25T23:48:33.977Z,8.27
2018-07-25T23:51:01.554Z,10.43
2018-07-25T23:53:29.961Z,8.73
2018-07-25T23:55:57.810Z,8.17
2018-07-25T23:58:25.370Z,7.90
